< < Back
Terminal Aerodrome Forecast


Current Version              Previous Versions:   1  2  3  4  5  6  7  8  9  

Terminal Aerodrome Forecast

668
FTUS42 KGSP 250900 AAA
TAFCLT
TAF AMD
KCLT 250900Z 2509/2606 16004KT P6SM FEW045 BKN250
     FM251800 23004KT P6SM SCT050 BKN250=

Latest METAR

373
SAUS70 KWBC 251100 RRJ
MTRCLT
METAR KCLT 251052Z 00000KT 10SM FEW250 22/17 A3020 RMK AO2 SLP217
T02170172


USA.gov is the U.S. government's official web portal to all federal, state and local government web resources and services.